La Rue, Ohio
Current Conditions -  °F | °C
As of 2:42 PM on Saturday 25 Oct 2014 (Local Time) from KMNN Reporting Station
Haze Haze  
Wind Chill: 71°   Ceiling: Unl
Heat Index: 71°   Visibility: 2mi
Dew Point: 52°   Wind: 15mph
Humidity: 51%   Direction: 260°W
Pressure: 29.84"   Gusts: 23mph
Location:  40.58°N, 83.38°W
Report Text: KMNN 251842Z AUTO 26013G20KT 2SM HZ CLR 22/11 A2984 RMK AO2 T02170111 TSNO $
Loading
Personal Weather Stations






























Interactive Weather Map
Tropical Storm Tracking
New forecast layout! Learn more

10-Day Weather Forecast

Advertisements
Track Severe Weather on mobile